Time;durP1;ratioP1;P1;durP2;ratioP2;P2;SDS_P1;SDS_P2;PMS_P1;PMS_P2;Temp;Humidity;BMP_temperature;BMP_pressure;BME280_temperature;BME280_humidity;BME280_pressure;Samples;Min_cycle;Max_cycle;Signal;HPM_P1;HPM_P2
2021/12/13 00:01:14;;;;;;;92.18;23.88;;;10.30;99.90;;;;;;4906665;28;20059;-80
2021/12/13 00:04:09;;;;;;;98.68;24.60;;;10.30;99.90;;;;;;4929410;28;151501;-81
2021/12/13 00:06:43;;;;;;;77.75;22.55;;;10.30;99.90;;;;;;4954822;28;20073;-80
2021/12/13 00:09:16;;;;;;;97.32;23.83;;;10.30;99.90;;;;;;4935280;28;20513;-80
2021/12/13 00:11:46;;;;;;;101.28;24.90;;;10.30;99.90;;;;;;4948001;28;20455;-80
2021/12/13 00:14:27;;;;;;;101.75;25.10;;;10.20;99.90;;;;;;4940886;28;75725;-80
2021/12/13 00:17:27;;;;;;;83.43;23.75;;;10.20;99.90;;;;;;4953153;28;20061;-80
2021/12/13 00:20:05;;;;;;;101.95;25.55;;;10.30;99.90;;;;;;4892645;29;157184;-80
2021/12/13 00:22:43;;;;;;;115.07;26.48;;;10.30;99.90;;;;;;4900028;29;20044;-80
2021/12/13 00:25:21;;;;;;;116.75;28.05;;;10.30;99.90;;;;;;4902936;29;67237;-79
2021/12/13 00:27:58;;;;;;;108.70;26.50;;;10.30;99.90;;;;;;4913871;29;20048;-80
2021/12/13 00:30:37;;;;;;;114.18;25.52;;;10.30;99.90;;;;;;4904047;29;104509;-78
2021/12/13 00:33:10;;;;;;;101.75;26.50;;;10.20;99.90;;;;;;4884180;29;20066;-79
2021/12/13 00:35:59;;;;;;;99.50;26.58;;;10.30;99.90;;;;;;4884149;29;239902;-80
2021/12/13 00:38:30;;;;;;;124.35;29.20;;;10.30;99.90;;;;;;4946919;28;20074;-79
2021/12/13 00:41:09;;;;;;;118.60;28.73;;;10.30;99.90;;;;;;4940420;28;20039;-80
2021/12/13 00:43:40;;;;;;;125.85;30.40;;;10.30;99.90;;;;;;4956513;28;20062;-80
2021/12/13 00:46:11;;;;;;;137.45;33.25;;;10.30;99.90;;;;;;4951361;28;20050;-80
2021/12/13 00:48:42;;;;;;;135.98;31.52;;;10.30;99.90;;;;;;4939078;28;64612;-79
2021/12/13 00:51:14;;;;;;;147.93;31.88;;;10.30;99.90;;;;;;4954617;28;20428;-79
2021/12/13 00:53:45;;;;;;;153.88;33.42;;;10.30;99.90;;;;;;4946630;28;219284;-80
2021/12/13 00:56:50;;;;;;;177.65;34.15;;;10.30;99.90;;;;;;4964694;28;20060;-79
2021/12/13 01:00:04;;;;;;;156.85;31.63;;;10.30;99.90;;;;;;5024624;28;158887;-80
2021/12/13 01:02:47;;;;;;;167.43;33.60;;;10.30;99.90;;;;;;4935202;28;20082;-79
2021/12/13 01:05:26;;;;;;;203.13;34.28;;;10.30;99.90;;;;;;4917941;28;261089;-79
2021/12/13 01:08:04;;;;;;;181.95;34.13;;;10.30;99.90;;;;;;4967834;28;20161;-79
2021/12/13 01:10:42;;;;;;;191.23;34.20;;;10.30;99.90;;;;;;4955077;28;169384;-79
2021/12/13 01:13:13;;;;;;;178.43;34.70;;;10.30;99.90;;;;;;4969017;28;20053;-79
2021/12/13 01:15:58;;;;;;;168.75;33.90;;;10.30;99.90;;;;;;4948288;28;143722;-79
2021/12/13 01:18:55;;;;;;;143.27;31.33;;;10.30;99.90;;;;;;4964888;28;20051;-79
2021/12/13 01:21:33;;;;;;;144.10;31.83;;;10.30;99.90;;;;;;4941164;28;20065;-81
2021/12/13 01:24:10;;;;;;;144.18;32.28;;;10.30;99.90;;;;;;4938081;28;224664;-79
2021/12/13 01:26:52;;;;;;;134.00;30.58;;;10.30;99.90;;;;;;4954408;28;20050;-79
2021/12/13 01:29:26;;;;;;;108.55;28.63;;;10.30;99.90;;;;;;4956496;28;20050;-79
2021/12/13 01:32:00;;;;;;;101.40;27.52;;;10.30;99.90;;;;;;4967224;28;20061;-80
2021/12/13 01:34:28;;;;;;;97.57;27.15;;;10.30;99.90;;;;;;4931311;28;239796;-80
2021/12/13 01:37:07;;;;;;;92.40;26.92;;;10.30;99.90;;;;;;5015822;28;20057;-81
2021/12/13 01:39:36;;;;;;;109.47;25.67;;;10.30;99.90;;;;;;4989984;28;109342;-80
2021/12/13 01:42:11;;;;;;;69.97;22.70;;;10.30;99.90;;;;;;5025537;28;20279;-80
2021/12/13 01:44:43;;;;;;;67.63;22.80;;;10.30;99.90;;;;;;5011312;28;124863;-80
2021/12/13 01:47:14;;;;;;;70.80;23.00;;;10.30;99.90;;;;;;5025159;28;21904;-79
2021/12/13 01:49:44;;;;;;;74.60;23.10;;;10.30;99.90;;;;;;5016971;28;259530;-78
2021/12/13 01:52:17;;;;;;;57.75;20.83;;;10.30;99.90;;;;;;5027608;28;20056;-80
2021/12/13 01:54:44;;;;;;;54.88;20.30;;;10.30;99.90;;;;;;5021255;28;145068;-79
2021/12/13 01:59:53;;;;;;;51.20;18.50;;;10.30;99.90;;;;;;5015868;28;117647;-78
2021/12/13 02:02:28;;;;;;;52.30;18.60;;;10.30;99.90;;;;;;5026838;28;20056;-79
2021/12/13 02:05:10;;;;;;;46.08;18.02;;;10.30;99.90;;;;;;4991360;28;149631;-78
2021/12/13 02:07:57;;;;;;;40.40;17.05;;;10.30;99.90;;;;;;5035843;28;20064;-80
2021/12/13 02:10:29;;;;;;;48.80;18.75;;;10.30;99.90;;;;;;5024197;28;129041;-79
2021/12/13 02:13:02;;;;;;;39.28;18.33;;;10.30;99.90;;;;;;5021766;28;20049;-80
2021/12/13 02:18:22;;;;;;;44.35;21.75;;;10.30;99.90;;;;;;5027070;28;20536;-80
2021/12/13 02:21:22;;;;;;;43.90;22.10;;;10.30;99.90;;;;;;5010593;28;170508;-79
2021/12/13 02:23:50;;;;;;;47.67;22.30;;;10.30;99.90;;;;;;5005494;28;260206;-80
2021/12/13 02:26:17;;;;;;;52.20;22.15;;;10.30;99.90;;;;;;5022937;28;20840;-80
2021/12/13 02:28:47;;;;;;;49.25;22.60;;;10.30;99.90;;;;;;5008216;28;277585;-81
2021/12/13 02:31:30;;;;;;;49.58;23.05;;;10.40;99.90;;;;;;5025044;28;20053;-80
2021/12/13 02:34:05;;;;;;;55.20;22.92;;;10.30;99.90;;;;;;5017809;28;40288;-80
2021/12/13 02:36:42;;;;;;;56.15;25.17;;;10.30;99.90;;;;;;5047092;28;20042;-79
2021/12/13 02:39:20;;;;;;;51.00;23.17;;;10.30;99.90;;;;;;5023918;28;88946;-79
2021/12/13 02:41:47;;;;;;;49.47;22.95;;;10.40;99.90;;;;;;5032907;28;20058;-79
2021/12/13 02:44:20;;;;;;;46.65;22.40;;;10.40;99.90;;;;;;5015452;28;261929;-80
2021/12/13 02:46:47;;;;;;;46.90;22.45;;;10.40;99.90;;;;;;5042807;28;20038;-79
2021/12/13 02:49:16;;;;;;;46.97;20.52;;;10.40;99.90;;;;;;5004099;28;279497;-79
2021/12/13 02:52:05;;;;;;;51.13;21.58;;;10.30;99.90;;;;;;5023458;28;20060;-81
2021/12/13 02:54:37;;;;;;;51.00;21.23;;;10.30;99.90;;;;;;5006245;28;249256;-80
2021/12/13 02:57:12;;;;;;;44.80;20.23;;;10.30;99.90;;;;;;5009059;28;20053;-80
2021/12/13 02:59:43;;;;;;;44.35;19.35;;;10.30;99.90;;;;;;5025207;28;100516;-79
2021/12/13 03:02:12;;;;;;;;;;;10.30;99.90;;;;;;5033693;28;20057;-80
2021/12/13 03:04:38;;;;;;;38.78;16.95;;;10.20;99.90;;;;;;4995801;28;253432;-80
2021/12/13 03:07:12;;;;;;;43.47;16.48;;;10.20;99.90;;;;;;5022704;28;20052;-80
2021/12/13 03:09:43;;;;;;;39.72;17.10;;;10.20;99.90;;;;;;5020564;28;61730;-78
2021/12/13 03:12:15;;;;;;;37.30;16.83;;;10.20;99.90;;;;;;5037780;28;20434;-79
2021/12/13 03:14:51;;;;;;;38.90;15.65;;;10.20;99.90;;;;;;5021140;28;254016;-79
2021/12/13 03:18:02;;;;;;;39.75;15.57;;;10.20;99.90;;;;;;5033324;28;20057;-80
2021/12/13 03:21:07;;;;;;;33.53;13.77;;;10.20;99.90;;;;;;5004596;28;236237;-81
2021/12/13 03:24:16;;;;;;;40.97;14.38;;;10.20;99.90;;;;;;4983301;28;200426;-80
2021/12/13 03:27:08;;;;;;;40.58;15.70;;;10.20;99.90;;;;;;4922506;29;20064;-80
2021/12/13 03:30:00;;;;;;;42.22;16.45;;;10.20;99.90;;;;;;4930087;28;211600;-80
2021/12/13 03:32:45;;;;;;;38.25;15.02;;;10.20;99.90;;;;;;4898467;29;20067;-79
2021/12/13 03:35:18;;;;;;;35.38;13.15;;;10.20;99.90;;;;;;4926760;28;191187;-79
2021/12/13 03:37:45;;;;;;;35.08;13.60;;;10.20;99.90;;;;;;4913165;29;20051;-80
2021/12/13 03:40:20;;;;;;;30.65;12.35;;;10.20;99.90;;;;;;4929306;28;33147;-79
2021/12/13 03:42:52;;;;;;;32.00;11.63;;;10.20;99.90;;;;;;4928180;28;20059;-81
2021/12/13 03:45:28;;;;;;;25.60;11.02;;;10.20;99.90;;;;;;4929126;28;173810;-80
2021/12/13 03:47:57;;;;;;;25.60;11.32;;;10.20;99.90;;;;;;4943510;28;20043;-79
2021/12/13 03:50:33;;;;;;;25.63;10.52;;;10.10;99.90;;;;;;4937136;28;45291;-81
2021/12/13 03:53:03;;;;;;;27.75;10.60;;;10.10;99.90;;;;;;4965999;28;20053;-80
2021/12/13 03:55:32;;;;;;;24.17;10.15;;;10.10;99.90;;;;;;4951220;28;200764;-79
2021/12/13 03:58:02;;;;;;;25.05;10.18;;;10.10;99.90;;;;;;4969530;28;20427;-79
2021/12/13 04:00:34;;;;;;;28.55;10.23;;;10.10;99.90;;;;;;4968234;28;49251;-78
2021/12/13 04:03:04;;;;;;;23.63;9.63;;;10.10;99.90;;;;;;5023724;28;20041;-79
2021/12/13 04:05:32;;;;;;;24.40;9.27;;;10.00;99.90;;;;;;4988977;28;190332;-79
2021/12/13 04:08:03;;;;;;;24.00;9.18;;;10.00;99.90;;;;;;5023945;28;20061;-80
2021/12/13 04:10:52;;;;;;;26.38;9.85;;;9.90;99.90;;;;;;5026891;28;271742;-79
2021/12/13 04:13:23;;;;;;;23.98;10.15;;;10.00;99.90;;;;;;5028382;28;20053;-79
2021/12/13 04:21:48;;;;;;;24.33;10.68;;;9.80;99.90;;;;;;5024765;28;20045;-79
2021/12/13 04:24:21;;;;;;;28.52;9.90;;;9.80;99.90;;;;;;4998621;28;203719;-80
2021/12/13 04:26:54;;;;;;;22.40;9.70;;;9.80;99.90;;;;;;5015174;28;20064;-80
2021/12/13 04:29:29;;;;;;;20.95;9.15;;;9.80;99.90;;;;;;5020166;28;217851;-79
2021/12/13 04:31:58;;;;;;;23.55;9.80;;;9.80;99.90;;;;;;5027810;28;20434;-78
2021/12/13 04:34:27;;;;;;;21.98;9.10;;;9.80;99.90;;;;;;5003562;28;21905;-80
2021/12/13 04:36:56;;;;;;;22.75;8.98;;;9.80;99.90;;;;;;5038583;28;20053;-80
2021/12/13 04:39:33;;;;;;;23.58;9.30;;;9.70;99.90;;;;;;5013128;28;48147;-81
2021/12/13 04:42:12;;;;;;;22.95;9.15;;;9.80;99.90;;;;;;5020641;28;20053;-79
2021/12/13 04:44:53;;;;;;;27.05;9.13;;;9.70;99.90;;;;;;5016840;28;255372;-79
2021/12/13 04:47:29;;;;;;;23.02;9.48;;;9.70;99.90;;;;;;5043394;28;20053;-80
2021/12/13 04:50:28;;;;;;;26.17;9.88;;;9.60;99.90;;;;;;5017436;28;184281;-80
2021/12/13 04:52:56;;;;;;;21.25;10.00;;;9.60;99.90;;;;;;5025039;28;20494;-80
2021/12/13 04:55:42;;;;;;;21.23;9.88;;;9.60;99.90;;;;;;5025882;28;265039;-80
2021/12/13 04:58:13;;;;;;;25.63;11.45;;;9.60;99.90;;;;;;5011127;28;20053;-80
2021/12/13 05:00:44;;;;;;;22.33;10.20;;;9.60;99.90;;;;;;4977419;28;243115;-80
2021/12/13 05:03:12;;;;;;;24.08;10.32;;;9.60;99.90;;;;;;5026812;28;20073;-80
2021/12/13 05:05:39;;;;;;;24.27;9.75;;;9.60;99.90;;;;;;4992971;28;215435;-78
2021/12/13 05:08:10;;;;;;;20.38;9.70;;;9.60;99.90;;;;;;5026551;28;20064;-79
2021/12/13 05:10:37;;;;;;;19.58;10.27;;;9.60;99.90;;;;;;5024856;28;228853;-79
2021/12/13 05:13:11;;;;;;;22.70;10.40;;;9.60;99.90;;;;;;5036208;28;20550;-80
2021/12/13 05:15:41;;;;;;;24.65;10.27;;;9.60;99.90;;;;;;5031032;28;257321;-79
2021/12/13 05:18:17;;;;;;;22.90;10.05;;;9.60;99.90;;;;;;5042786;28;20057;-80
2021/12/13 05:20:43;;;;;;;22.25;10.55;;;9.60;99.90;;;;;;5041877;28;270398;-79
2021/12/13 05:23:13;;;;;;;25.25;10.82;;;9.60;99.90;;;;;;5041851;28;20060;-79
2021/12/13 05:25:43;;;;;;;26.73;10.20;;;9.60;99.90;;;;;;5039480;28;272508;-80
2021/12/13 05:28:09;;;;;;;20.93;10.63;;;9.60;99.90;;;;;;5044305;28;20053;-78
2021/12/13 05:30:54;;;;;;;20.95;10.32;;;9.60;99.90;;;;;;5028428;28;58855;-79
2021/12/13 05:33:21;;;;;;;23.95;10.80;;;9.60;99.90;;;;;;5007907;28;20064;-79
2021/12/13 05:35:53;;;;;;;24.40;11.52;;;9.50;99.90;;;;;;5000897;28;20062;-79
2021/12/13 05:38:29;;;;;;;22.77;10.40;;;9.60;99.90;;;;;;5036529;28;20062;-79
2021/12/13 05:40:59;;;;;;;22.95;10.63;;;9.60;99.90;;;;;;5031062;28;207286;-79
2021/12/13 05:43:37;;;;;;;22.90;11.07;;;9.60;99.90;;;;;;5030085;28;20064;-79
2021/12/13 05:46:17;;;;;;;19.88;10.23;;;9.50;99.90;;;;;;4985264;28;20041;-78
2021/12/13 05:48:56;;;;;;;26.23;11.10;;;9.60;99.90;;;;;;4989699;28;264883;-78
2021/12/13 05:51:36;;;;;;;20.85;10.77;;;9.50;99.90;;;;;;5034131;28;20053;-79
2021/12/13 05:54:09;;;;;;;23.52;10.85;;;9.50;99.90;;;;;;5004554;28;168952;-81
2021/12/13 05:56:48;;;;;;;23.33;11.00;;;9.50;99.90;;;;;;5024314;28;20054;-80
2021/12/13 05:59:27;;;;;;;22.85;10.73;;;9.50;99.90;;;;;;5020277;28;98314;-80
2021/12/13 06:02:11;;;;;;;23.63;10.77;;;9.50;99.90;;;;;;5034338;28;20053;-79
2021/12/13 06:04:45;;;;;;;22.20;10.40;;;9.50;99.90;;;;;;4997896;28;239211;-79
2021/12/13 06:07:17;;;;;;;21.02;10.32;;;9.50;99.90;;;;;;5018585;28;20061;-80
2021/12/13 06:09:46;;;;;;;20.05;9.80;;;9.50;99.90;;;;;;5003490;28;261800;-81
2021/12/13 06:12:23;;;;;;;22.45;10.80;;;9.50;99.90;;;;;;5026742;28;20045;-80
2021/12/13 06:14:49;;;;;;;18.95;10.63;;;9.50;99.90;;;;;;5020993;28;252655;-79
2021/12/13 06:17:28;;;;;;;21.13;11.73;;;9.50;99.90;;;;;;5028380;28;20053;-80
2021/12/13 06:20:01;;;;;;;22.42;10.77;;;9.50;99.90;;;;;;5014888;28;149957;-79
2021/12/13 06:22:29;;;;;;;20.17;10.25;;;9.50;99.90;;;;;;5025641;28;20049;-79
2021/12/13 06:24:56;;;;;;;21.63;10.60;;;9.50;99.90;;;;;;5005208;28;200270;-79
2021/12/13 06:27:40;;;;;;;25.23;11.52;;;9.50;99.90;;;;;;5030572;28;20383;-80
2021/12/13 06:30:25;;;;;;;25.58;10.90;;;9.50;99.90;;;;;;5019332;28;46780;-80
2021/12/13 06:33:03;;;;;;;22.90;11.25;;;9.50;99.90;;;;;;5030592;28;20029;-80
2021/12/13 06:35:38;;;;;;;21.63;10.93;;;9.50;99.90;;;;;;5024450;28;245024;-81
2021/12/13 06:38:19;;;;;;;20.52;10.88;;;9.50;99.90;;;;;;5033816;28;20041;-79
2021/12/13 06:40:55;;;;;;;23.83;11.23;;;9.50;99.90;;;;;;5023696;28;259966;-81
2021/12/13 06:43:26;;;;;;;25.90;11.68;;;9.50;99.90;;;;;;5030267;28;20041;-82
2021/12/13 06:45:52;;;;;;;22.88;11.15;;;9.50;99.90;;;;;;5035162;28;258937;-81
2021/12/13 06:48:18;;;;;;;22.92;11.23;;;9.50;99.90;;;;;;5038169;28;20057;-81
2021/12/13 06:50:47;;;;;;;22.95;11.75;;;9.50;99.90;;;;;;5016917;28;131306;-82
2021/12/13 06:53:20;;;;;;;24.63;12.50;;;9.50;99.90;;;;;;5038736;28;20049;-81
2021/12/13 06:55:47;;;;;;;23.85;12.52;;;9.50;99.90;;;;;;4993433;28;211112;-83
2021/12/13 06:58:29;;;;;;;26.67;12.52;;;9.50;99.90;;;;;;5030192;28;20514;-82
2021/12/13 07:01:04;;;;;;;27.83;12.73;;;9.40;99.90;;;;;;5014957;28;169814;-82
2021/12/13 07:03:34;;;;;;;24.30;13.52;;;9.50;99.90;;;;;;5017972;28;252275;-79
2021/12/13 07:06:04;;;;;;;24.48;13.32;;;9.40;99.90;;;;;;4974527;28;114168;-81
2021/12/13 07:08:36;;;;;;;24.15;13.85;;;9.40;99.90;;;;;;5010685;28;20064;-81
2021/12/13 07:11:17;;;;;;;26.08;14.20;;;9.40;99.90;;;;;;4988520;28;20028;-82
2021/12/13 07:14:00;;;;;;;24.67;14.02;;;9.40;99.90;;;;;;5013548;28;266691;-81
2021/12/13 07:16:34;;;;;;;22.30;13.43;;;9.40;99.90;;;;;;5009469;28;20521;-81
2021/12/13 07:19:21;;;;;;;24.73;14.38;;;9.40;99.90;;;;;;5006232;28;50161;-82
2021/12/13 07:22:08;;;;;;;28.60;15.98;;;9.40;99.90;;;;;;5044302;28;20041;-82
2021/12/13 07:24:42;;;;;;;26.80;14.90;;;9.50;99.90;;;;;;5029493;28;228053;-82
2021/12/13 07:27:27;;;;;;;28.45;16.50;;;9.40;99.90;;;;;;5035663;28;20064;-81
2021/12/13 07:30:06;;;;;;;27.80;16.15;;;9.40;99.90;;;;;;5025017;28;259579;-81
2021/12/13 07:32:39;;;;;;;28.23;17.17;;;9.40;99.90;;;;;;5028047;28;20065;-81
2021/12/13 07:35:12;;;;;;;27.23;17.08;;;9.40;99.90;;;;;;5025424;28;264972;-81
2021/12/13 07:37:53;;;;;;;27.98;18.27;;;9.40;99.90;;;;;;5012473;28;20058;-82
2021/12/13 07:40:21;;;;;;;31.13;17.60;;;9.40;99.90;;;;;;5025872;28;262945;-80
2021/12/13 07:43:06;;;;;;;28.88;18.17;;;9.50;99.90;;;;;;5030195;28;20060;-82
2021/12/13 07:45:58;;;;;;;29.45;18.48;;;9.40;99.90;;;;;;4985188;28;183087;-81
2021/12/13 07:48:30;;;;;;;31.35;19.05;;;9.40;99.90;;;;;;5030267;28;20045;-82
2021/12/13 07:51:05;;;;;;;32.92;19.55;;;9.40;99.90;;;;;;5011198;28;218608;-81
2021/12/13 07:53:49;;;;;;;31.85;19.60;;;9.40;99.90;;;;;;5021183;28;239653;-80
2021/12/13 07:56:23;;;;;;;29.83;18.33;;;9.50;99.90;;;;;;5039581;28;20053;-81
2021/12/13 07:58:57;;;;;;;32.35;21.05;;;9.50;99.90;;;;;;5022652;28;255082;-81
2021/12/13 08:01:27;;;;;;;33.15;20.35;;;9.50;99.90;;;;;;5033399;28;20056;-81
2021/12/13 08:03:53;;;;;;;31.98;20.45;;;9.50;99.90;;;;;;5005535;28;262801;-80
2021/12/13 08:06:21;;;;;;;32.10;21.33;;;9.50;99.90;;;;;;5036952;28;20041;-82
2021/12/13 08:08:55;;;;;;;37.45;21.00;;;9.50;99.90;;;;;;5018602;28;271965;-81
2021/12/13 08:11:39;;;;;;;30.63;20.02;;;9.50;99.90;;;;;;5025618;28;20065;-80
2021/12/13 08:14:06;;;;;;;33.95;21.50;;;9.50;99.90;;;;;;5016426;28;104343;-80
2021/12/13 08:16:40;;;;;;;33.15;22.42;;;9.50;99.90;;;;;;5032197;28;20088;-81
2021/12/13 08:19:14;;;;;;;32.38;22.58;;;9.50;99.90;;;;;;5023178;28;68477;-81
2021/12/13 08:21:45;;;;;;;35.13;22.02;;;9.50;99.90;;;;;;5028703;28;21775;-81
2021/12/13 08:24:20;;;;;;;;;;;9.50;99.90;;;;;;5015886;28;175691;-79
2021/12/13 08:26:46;;;;;;;34.80;21.50;;;9.50;99.90;;;;;;5039949;28;19920;-80
2021/12/13 08:29:27;;;;;;;31.15;21.70;;;9.50;99.90;;;;;;5018631;28;210024;-80
2021/12/13 08:31:55;;;;;;;37.67;22.47;;;9.50;99.90;;;;;;5011879;28;20438;-80
2021/12/13 08:34:36;;;;;;;34.13;23.17;;;9.50;99.90;;;;;;5030824;28;101268;-80
2021/12/13 08:37:23;;;;;;;34.70;22.77;;;9.50;99.90;;;;;;5030058;28;20060;-81
2021/12/13 08:39:54;;;;;;;32.40;22.45;;;9.50;99.90;;;;;;5016081;28;196832;-80
2021/12/13 08:42:24;;;;;;;35.53;22.90;;;9.50;99.90;;;;;;5023757;28;20063;-81
2021/12/13 08:44:58;;;;;;;37.50;23.17;;;9.60;99.90;;;;;;4998196;28;121415;-81
2021/12/13 08:47:33;;;;;;;36.13;22.63;;;9.60;99.90;;;;;;5028266;28;20053;-80
2021/12/13 08:50:07;;;;;;;34.25;22.67;;;9.50;99.90;;;;;;5000878;28;227189;-80
2021/12/13 08:52:38;;;;;;;34.72;23.02;;;9.60;99.90;;;;;;5029992;28;20406;-79
2021/12/13 08:55:13;;;;;;;;;;;9.60;99.90;;;;;;5014926;28;231635;-80
2021/12/13 08:57:57;;;;;;;32.10;21.98;;;9.50;99.90;;;;;;5032583;28;19931;-81
2021/12/13 09:00:42;;;;;;;34.65;22.25;;;9.60;99.90;;;;;;5012645;28;47169;-80
2021/12/13 09:03:25;;;;;;;36.17;23.00;;;9.60;99.90;;;;;;5010674;28;20045;-81
2021/12/13 09:05:56;;;;;;;36.83;23.67;;;9.50;99.90;;;;;;5009046;28;247369;-81
2021/12/13 09:08:39;;;;;;;41.17;23.15;;;9.60;99.90;;;;;;5036920;28;20052;-80
2021/12/13 09:11:30;;;;;;;34.58;22.88;;;9.60;99.90;;;;;;5021215;28;20041;-80
2021/12/13 09:14:13;;;;;;;35.38;23.42;;;9.60;99.90;;;;;;5028429;28;261265;-79
2021/12/13 09:16:54;;;;;;;37.03;23.33;;;9.60;99.90;;;;;;5043098;28;20074;-79
2021/12/13 09:19:30;;;;;;;34.53;23.75;;;9.60;99.90;;;;;;5056219;28;244777;-79
2021/12/13 09:22:14;;;;;;;32.75;23.23;;;9.60;99.90;;;;;;5054781;28;20084;-80
2021/12/13 09:24:43;;;;;;;34.33;22.92;;;9.60;99.90;;;;;;5024557;28;21059;-80
2021/12/13 09:27:29;;;;;;;34.13;23.33;;;9.70;99.90;;;;;;5023398;28;20518;-80
2021/12/13 09:30:35;;;;;;;33.08;21.48;;;9.70;99.90;;;;;;5017380;28;265204;-80
2021/12/13 09:33:12;;;;;;;33.50;21.45;;;9.70;99.90;;;;;;5018317;28;20054;-82
2021/12/13 09:35:41;;;;;;;35.78;23.48;;;9.80;99.90;;;;;;5001359;28;232972;-80
2021/12/13 09:38:23;;;;;;;30.77;19.48;;;9.80;99.90;;;;;;5025501;28;20045;-81
2021/12/13 09:41:01;;;;;;;31.97;21.30;;;9.80;99.90;;;;;;5015218;28;73649;-79
2021/12/13 09:43:54;;;;;;;27.50;19.55;;;9.80;99.90;;;;;;5008613;28;20072;-80
2021/12/13 09:46:28;;;;;;;31.05;19.88;;;9.80;99.90;;;;;;4981397;28;20064;-80
2021/12/13 09:48:56;;;;;;;33.13;19.75;;;9.80;99.90;;;;;;5005921;28;262947;-80
2021/12/13 09:51:30;;;;;;;33.67;19.98;;;9.80;99.90;;;;;;5007743;28;20046;-81
2021/12/13 09:53:59;;;;;;;28.42;19.58;;;9.90;99.90;;;;;;5011254;28;270495;-79
2021/12/13 09:56:32;;;;;;;28.85;19.08;;;9.80;99.90;;;;;;5028009;28;20050;-81
2021/12/13 09:59:05;;;;;;;30.67;18.85;;;9.90;99.90;;;;;;4996351;28;78609;-80
2021/12/13 10:01:36;;;;;;;27.05;17.73;;;9.90;99.90;;;;;;5035012;28;20025;-81
2021/12/13 10:04:08;;;;;;;30.90;18.80;;;9.80;99.90;;;;;;5002507;28;271239;-80
2021/12/13 10:06:49;;;;;;;27.30;17.88;;;9.80;99.90;;;;;;5030495;28;20057;-80
2021/12/13 10:09:36;;;;;;;24.58;17.27;;;9.90;99.90;;;;;;5014200;28;258593;-80
2021/12/13 10:12:07;;;;;;;25.73;16.48;;;9.90;99.90;;;;;;5033281;28;20073;-80
2021/12/13 10:14:40;;;;;;;26.63;18.40;;;9.90;99.90;;;;;;5033741;28;244140;-81
2021/12/13 10:17:08;;;;;;;30.73;18.55;;;9.90;99.90;;;;;;5044158;28;20057;-80
2021/12/13 10:19:45;;;;;;;26.92;17.70;;;9.90;99.90;;;;;;5005342;28;106085;-80
2021/12/13 10:22:13;;;;;;;27.83;17.52;;;9.90;99.90;;;;;;5045634;28;20050;-81
2021/12/13 10:24:50;;;;;;;26.83;17.80;;;9.90;99.90;;;;;;5010193;28;136863;-81
2021/12/13 10:27:18;;;;;;;30.83;18.55;;;9.90;99.90;;;;;;5048393;28;20054;-81
2021/12/13 10:29:54;;;;;;;28.17;17.52;;;9.90;99.90;;;;;;5009618;28;196380;-81
2021/12/13 10:32:24;;;;;;;28.77;17.23;;;9.90;99.90;;;;;;5035245;28;20048;-80
2021/12/13 10:35:00;;;;;;;23.70;16.90;;;9.90;99.90;;;;;;5036103;28;112152;-81
2021/12/13 10:37:34;;;;;;;24.42;15.75;;;9.90;99.90;;;;;;5048635;28;20067;-83
2021/12/13 10:40:20;;;;;;;29.55;17.77;;;9.90;99.90;;;;;;5026427;28;27649;-81
2021/12/13 10:42:54;;;;;;;26.50;17.63;;;10.00;99.90;;;;;;5023701;28;20057;-81
2021/12/13 10:45:29;;;;;;;27.40;17.23;;;10.10;99.90;;;;;;5037141;28;219033;-82
2021/12/13 10:48:00;;;;;;;27.10;17.70;;;10.10;99.90;;;;;;5035920;28;20053;-81
2021/12/13 10:50:34;;;;;;;28.23;17.10;;;10.10;99.90;;;;;;5037689;28;257657;-81
2021/12/13 10:53:01;;;;;;;25.65;16.08;;;10.10;99.90;;;;;;5055281;28;20421;-81
2021/12/13 10:55:32;;;;;;;25.35;17.13;;;10.10;99.90;;;;;;5038022;28;197131;-82
2021/12/13 10:57:59;;;;;;;30.17;17.67;;;10.10;99.90;;;;;;5055207;28;20041;-81
2021/12/13 11:00:34;;;;;;;24.20;15.80;;;10.20;99.90;;;;;;5048432;28;277762;-81
2021/12/13 11:03:07;;;;;;;26.05;16.55;;;10.20;99.90;;;;;;5057433;28;20040;-81
2021/12/13 11:05:34;;;;;;;24.67;16.58;;;10.20;99.90;;;;;;5004436;28;234024;-83
2021/12/13 11:08:03;;;;;;;24.92;14.88;;;10.20;99.90;;;;;;5033891;28;20045;-82
2021/12/13 11:10:35;;;;;;;26.23;16.30;;;10.20;99.90;;;;;;5028753;28;265894;-82
2021/12/13 11:13:05;;;;;;;24.58;16.15;;;10.30;99.90;;;;;;5032925;28;20116;-82
2021/12/13 11:15:38;;;;;;;25.63;16.45;;;10.20;99.90;;;;;;5021858;28;23147;-82
2021/12/13 11:18:08;;;;;;;24.95;16.02;;;10.20;99.90;;;;;;5005307;28;20052;-82
2021/12/13 11:20:43;;;;;;;26.42;16.58;;;10.20;99.90;;;;;;5031768;28;250540;-81
2021/12/13 11:23:11;;;;;;;26.38;15.70;;;10.20;99.90;;;;;;5042723;28;20057;-81
2021/12/13 11:25:52;;;;;;;27.85;16.02;;;10.20;99.90;;;;;;5029936;28;198843;-82
2021/12/13 11:28:19;;;;;;;29.07;15.90;;;10.30;99.90;;;;;;5048864;28;20066;-81
2021/12/13 11:30:47;;;;;;;28.23;16.23;;;10.30;99.90;;;;;;5031784;28;254851;-81
2021/12/13 11:33:28;;;;;;;26.92;15.52;;;10.30;99.90;;;;;;5031643;28;20141;-82
2021/12/13 11:36:10;;;;;;;24.15;16.13;;;10.30;99.90;;;;;;5021525;28;197116;-81
2021/12/13 11:39:14;;;;;;;26.02;16.67;;;10.30;99.90;;;;;;5014347;28;253645;-81
2021/12/13 11:42:17;;;;;;;27.13;16.15;;;10.30;99.90;;;;;;5033792;28;20060;-83
2021/12/13 11:45:15;;;;;;;28.75;17.15;;;10.30;99.90;;;;;;5023436;28;252356;-82
2021/12/13 11:48:18;;;;;;;30.73;16.25;;;10.40;99.90;;;;;;4990908;28;20523;-82
2021/12/13 11:51:19;;;;;;;29.23;16.90;;;10.30;99.90;;;;;;4972157;28;248048;-80
2021/12/13 11:54:10;;;;;;;27.15;16.52;;;10.40;99.90;;;;;;4992362;28;206867;-81
2021/12/13 11:57:04;;;;;;;27.63;16.83;;;10.30;99.90;;;;;;4995032;28;20228;-81
2021/12/13 11:59:56;;;;;;;27.83;15.80;;;10.40;99.90;;;;;;4992270;28;170287;-81
2021/12/13 12:02:43;;;;;;;26.92;16.15;;;10.40;99.90;;;;;;5010290;28;20046;-81
2021/12/13 12:05:30;;;;;;;30.45;15.25;;;10.40;99.90;;;;;;4972856;28;227452;-81
2021/12/13 12:08:34;;;;;;;27.13;16.42;;;10.40;99.90;;;;;;4990015;28;20054;-82
2021/12/13 12:11:10;;;;;;;27.75;16.20;;;10.40;99.90;;;;;;4949665;28;20042;-82
2021/12/13 12:14:01;;;;;;;30.33;17.40;;;10.40;99.90;;;;;;4961039;28;104567;-82
2021/12/13 12:16:28;;;;;;;28.20;16.85;;;10.40;99.90;;;;;;4983820;28;20058;-81
2021/12/13 12:18:56;;;;;;;25.83;16.88;;;10.50;99.90;;;;;;4973622;28;220987;-80
2021/12/13 12:21:44;;;;;;;24.98;16.45;;;10.50;99.90;;;;;;4973162;28;20049;-82
2021/12/13 12:24:23;;;;;;;29.52;16.30;;;10.60;99.90;;;;;;4986623;28;20049;-81
2021/12/13 12:27:00;;;;;;;29.02;16.48;;;10.60;99.90;;;;;;5034142;28;20052;-81
2021/12/13 12:29:33;;;;;;;29.55;16.65;;;10.60;99.90;;;;;;5015355;28;245816;-82
2021/12/13 12:32:14;;;;;;;28.38;16.98;;;10.60;99.90;;;;;;5039158;28;20120;-81
2021/12/13 12:35:00;;;;;;;27.58;17.55;;;10.70;99.90;;;;;;5038087;28;242882;-81
2021/12/13 12:37:36;;;;;;;28.30;16.77;;;10.60;99.90;;;;;;5035867;28;20553;-82
2021/12/13 12:40:08;;;;;;;28.50;17.88;;;10.60;99.90;;;;;;5027252;28;249283;-82
2021/12/13 12:42:34;;;;;;;30.73;16.50;;;10.60;99.90;;;;;;5031588;28;20045;-81
2021/12/13 12:45:30;;;;;;;27.15;16.30;;;10.60;99.90;;;;;;4998711;28;46655;-82
2021/12/13 12:48:04;;;;;;;26.73;16.63;;;10.60;99.90;;;;;;5033013;28;20057;-82
2021/12/13 12:50:59;;;;;;;29.08;16.52;;;10.60;99.90;;;;;;5008510;28;27137;-82
2021/12/13 12:53:30;;;;;;;27.05;16.67;;;10.60;99.90;;;;;;5014325;28;20045;-81
2021/12/13 12:56:03;;;;;;;31.70;17.30;;;10.60;99.90;;;;;;5018769;28;20053;-80
2021/12/13 12:58:44;;;;;;;27.48;16.80;;;10.60;99.90;;;;;;5012157;28;20498;-82
2021/12/13 13:01:19;;;;;;;27.73;17.58;;;10.60;99.90;;;;;;5001126;28;20048;-81
2021/12/13 13:03:46;;;;;;;29.70;18.40;;;10.50;99.90;;;;;;5000827;28;135162;-81
2021/12/13 13:06:17;;;;;;;30.40;17.90;;;10.50;99.90;;;;;;5012013;28;20430;-82
2021/12/13 13:08:49;;;;;;;30.13;18.70;;;10.40;99.90;;;;;;5013971;28;90344;-81
2021/12/13 13:11:27;;;;;;;34.97;16.98;;;10.40;99.90;;;;;;5025370;28;20045;-81
2021/12/13 13:14:10;;;;;;;29.27;17.67;;;10.40;99.90;;;;;;5030436;28;83916;-81
2021/12/13 13:16:48;;;;;;;31.80;18.08;;;10.40;99.90;;;;;;5041723;28;20058;-82
2021/12/13 13:19:41;;;;;;;31.63;18.75;;;10.30;99.90;;;;;;4997873;28;198175;-82
2021/12/13 13:22:13;;;;;;;31.00;17.55;;;10.30;99.90;;;;;;5014048;28;20060;-82
2021/12/13 13:24:43;;;;;;;31.38;17.88;;;10.30;99.90;;;;;;4990246;28;20049;-82
2021/12/13 13:27:11;;;;;;;33.57;18.80;;;10.30;99.90;;;;;;5012987;28;20049;-83